createdAt,value
2022-11-22T00:03:06.242Z,2.60
2022-11-22T00:18:09.518Z,2.62
2022-11-22T00:33:12.864Z,2.72
2022-11-22T00:48:16.561Z,2.74
2022-11-22T01:03:20.094Z,2.73
2022-11-22T01:18:23.273Z,2.72
2022-11-22T01:33:26.689Z,2.71
2022-11-22T01:48:38.968Z,2.75
2022-11-22T02:03:46.576Z,2.80
2022-11-22T02:18:49.831Z,2.80
2022-11-22T02:33:55.321Z,2.77
2022-11-22T02:49:01.012Z,2.76
2022-11-22T03:04:04.709Z,2.72
2022-11-22T03:19:08.659Z,2.76
2022-11-22T03:34:12.661Z,2.75
2022-11-22T03:49:16.262Z,2.85
2022-11-22T04:04:19.940Z,2.85
2022-11-22T04:19:23.469Z,2.98
2022-11-22T04:34:27.098Z,2.94
2022-11-22T04:49:31.059Z,2.95
2022-11-22T05:04:34.969Z,3.02
2022-11-22T05:19:38.156Z,3.06
2022-11-22T05:34:41.294Z,3.04
2022-11-22T05:49:46.413Z,2.76
2022-11-22T06:04:49.865Z,2.55
2022-11-22T06:19:53.036Z,2.62
2022-11-22T06:34:56.314Z,2.63
2022-11-22T06:49:59.953Z,2.53
2022-11-22T07:05:24.568Z,2.56
2022-11-22T07:20:26.784Z,2.64
2022-11-22T07:35:30.044Z,2.71
2022-11-22T07:50:34.070Z,2.87
2022-11-22T08:05:37.507Z,2.93
2022-11-22T08:20:41.117Z,2.96
2022-11-22T08:35:44.501Z,3.14
2022-11-22T08:50:53.845Z,3.13
2022-11-22T09:21:29.233Z,3.45
2022-11-22T09:36:32.879Z,3.70
2022-11-22T09:51:47.769Z,4.25
2022-11-22T10:06:56.776Z,4.30
2022-11-22T11:34:34.060Z,3.05
2022-11-22T11:49:37.551Z,4.21
2022-11-22T12:04:52.783Z,4.36
2022-11-22T12:20:26.285Z,4.27
2022-11-22T12:35:42.782Z,4.15
2022-11-22T12:50:54.243Z,3.96
2022-11-22T13:05:59.957Z,3.87
2022-11-22T13:21:33.701Z,3.72
2022-11-22T13:36:39.895Z,3.58
2022-11-22T13:51:55.669Z,3.58
2022-11-22T14:07:11.613Z,3.47
2022-11-22T14:22:42.091Z,3.42
2022-11-22T14:37:58.017Z,3.40
2022-11-22T14:53:51.558Z,3.39
2022-11-22T15:09:45.140Z,3.40
2022-11-22T16:11:55.582Z,3.41
2022-11-22T16:27:06.295Z,3.44
2022-11-22T16:42:10.407Z,3.40
2022-11-22T16:57:16.297Z,3.38
2022-11-22T17:12:29.079Z,3.35
2022-11-22T17:27:37.468Z,3.30
2022-11-22T17:42:41.488Z,3.27
2022-11-22T17:57:44.989Z,3.27
